sensor_id;sensor_type;location;lat;lon;timestamp;pressure;altitude;pressure_sealevel;temperature;humidity
20156;BME280;10238;49.556;10.956;2024-02-04T00:00:19;99227.34;;;7.67;100.00
20156;BME280;10238;49.556;10.956;2024-02-04T00:03:07;99236.25;;;7.66;100.00
20156;BME280;10238;49.556;10.956;2024-02-04T00:05:54;99250.44;;;7.65;100.00
20156;BME280;10238;49.556;10.956;2024-02-04T00:08:42;99243.34;;;7.65;100.00
20156;BME280;10238;49.556;10.956;2024-02-04T00:11:30;99239.03;;;7.64;100.00
20156;BME280;10238;49.556;10.956;2024-02-04T00:14:17;99251.41;;;7.64;100.00
20156;BME280;10238;49.556;10.956;2024-02-04T00:17:07;99245.13;;;7.65;100.00
20156;BME280;10238;49.556;10.956;2024-02-04T00:19:55;99241.34;;;7.69;100.00
20156;BME280;10238;49.556;10.956;2024-02-04T00:22:43;99219.53;;;7.65;100.00
20156;BME280;10238;49.556;10.956;2024-02-04T00:25:30;99230.00;;;7.67;100.00
20156;BME280;10238;49.556;10.956;2024-02-04T00:28:18;99217.75;;;7.66;100.00
20156;BME280;10238;49.556;10.956;2024-02-04T00:31:06;99210.75;;;7.65;100.00
20156;BME280;10238;49.556;10.956;2024-02-04T00:33:55;99215.09;;;7.66;100.00
20156;BME280;10238;49.556;10.956;2024-02-04T00:36:43;99223.16;;;7.64;100.00
20156;BME280;10238;49.556;10.956;2024-02-04T00:39:30;99211.72;;;7.64;100.00
20156;BME280;10238;49.556;10.956;2024-02-04T00:42:18;99207.28;;;7.64;100.00
20156;BME280;10238;49.556;10.956;2024-02-04T00:45:06;99206.41;;;7.64;100.00
20156;BME280;10238;49.556;10.956;2024-02-04T00:47:54;99218.91;;;7.62;100.00
20156;BME280;10238;49.556;10.956;2024-02-04T00:50:43;99219.88;;;7.61;100.00
20156;BME280;10238;49.556;10.956;2024-02-04T00:53:31;99218.09;;;7.61;100.00
20156;BME280;10238;49.556;10.956;2024-02-04T00:56:21;99204.97;;;7.60;100.00
20156;BME280;10238;49.556;10.956;2024-02-04T00:59:08;99204.13;;;7.59;100.00
20156;BME280;10238;49.556;10.956;2024-02-04T01:01:56;99206.88;;;7.58;100.00
20156;BME280;10238;49.556;10.956;2024-02-04T01:04:45;99216.53;;;7.59;100.00
20156;BME280;10238;49.556;10.956;2024-02-04T01:07:34;99215.56;;;7.60;100.00
20156;BME280;10238;49.556;10.956;2024-02-04T01:10:22;99218.19;;;7.60;100.00
20156;BME280;10238;49.556;10.956;2024-02-04T01:13:09;99227.81;;;7.61;100.00
20156;BME280;10238;49.556;10.956;2024-02-04T01:15:57;99221.56;;;7.62;100.00
20156;BME280;10238;49.556;10.956;2024-02-04T01:18:45;99215.31;;;7.63;100.00
20156;BME280;10238;49.556;10.956;2024-02-04T01:21:32;99214.47;;;7.62;100.00
20156;BME280;10238;49.556;10.956;2024-02-04T01:24:21;99224.19;;;7.62;100.00
20156;BME280;10238;49.556;10.956;2024-02-04T01:27:09;99210.97;;;7.62;100.00
20156;BME280;10238;49.556;10.956;2024-02-04T01:29:56;99207.50;;;7.61;100.00
20156;BME280;10238;49.556;10.956;2024-02-04T01:32:47;99200.28;;;7.63;100.00
20156;BME280;10238;49.556;10.956;2024-02-04T01:35:35;99200.28;;;7.63;100.00
20156;BME280;10238;49.556;10.956;2024-02-04T01:38:23;99196.81;;;7.63;100.00
20156;BME280;10238;49.556;10.956;2024-02-04T01:41:11;99199.44;;;7.63;100.00
20156;BME280;10238;49.556;10.956;2024-02-04T01:43:59;99189.09;;;7.60;100.00
20156;BME280;10238;49.556;10.956;2024-02-04T01:46:46;99182.00;;;7.60;100.00
20156;BME280;10238;49.556;10.956;2024-02-04T01:49:34;99193.53;;;7.59;100.00
20156;BME280;10238;49.556;10.956;2024-02-04T01:52:22;99187.41;;;7.59;100.00
20156;BME280;10238;49.556;10.956;2024-02-04T01:55:10;99181.16;;;7.60;100.00
20156;BME280;10238;49.556;10.956;2024-02-04T01:58:00;99168.91;;;7.59;100.00
20156;BME280;10238;49.556;10.956;2024-02-04T02:00:50;99185.72;;;7.58;100.00
20156;BME280;10238;49.556;10.956;2024-02-04T02:03:39;99182.13;;;7.59;100.00
20156;BME280;10238;49.556;10.956;2024-02-04T02:06:26;99189.09;;;7.60;100.00
20156;BME280;10238;49.556;10.956;2024-02-04T02:09:14;99181.88;;;7.62;100.00
20156;BME280;10238;49.556;10.956;2024-02-04T02:12:08;99178.50;;;7.60;100.00
20156;BME280;10238;49.556;10.956;2024-02-04T02:15:09;99180.19;;;7.61;100.00
20156;BME280;10238;49.556;10.956;2024-02-04T02:18:01;99190.78;;;7.61;100.00
20156;BME280;10238;49.556;10.956;2024-02-04T02:21:08;99182.84;;;7.61;100.00
20156;BME280;10238;49.556;10.956;2024-02-04T02:24:10;99185.72;;;7.58;100.00
20156;BME280;10238;49.556;10.956;2024-02-04T02:27:00;99177.78;;;7.58;100.00
20156;BME280;10238;49.556;10.956;2024-02-04T02:29:48;99186.69;;;7.57;100.00
20156;BME280;10238;49.556;10.956;2024-02-04T02:32:36;99187.66;;;7.56;100.00
20156;BME280;10238;49.556;10.956;2024-02-04T02:35:23;99192.09;;;7.55;100.00
20156;BME280;10238;49.556;10.956;2024-02-04T02:38:25;99190.41;;;7.54;100.00
20156;BME280;10238;49.556;10.956;2024-02-04T02:41:18;99192.94;;;7.56;100.00
20156;BME280;10238;49.556;10.956;2024-02-04T02:44:13;99198.22;;;7.56;100.00
20156;BME280;10238;49.556;10.956;2024-02-04T02:47:05;99207.97;;;7.55;100.00
20156;BME280;10238;49.556;10.956;2024-02-04T02:49:54;99206.28;;;7.54;100.00
20156;BME280;10238;49.556;10.956;2024-02-04T02:52:42;99202.91;;;7.52;100.00
20156;BME280;10238;49.556;10.956;2024-02-04T02:55:29;99201.09;;;7.53;100.00
20156;BME280;10238;49.556;10.956;2024-02-04T02:58:17;99198.47;;;7.53;100.00
20156;BME280;10238;49.556;10.956;2024-02-04T03:01:06;99197.59;;;7.52;100.00
20156;BME280;10238;49.556;10.956;2024-02-04T03:03:54;99208.06;;;7.54;100.00
20156;BME280;10238;49.556;10.956;2024-02-04T03:06:41;99204.69;;;7.52;100.00
20156;BME280;10238;49.556;10.956;2024-02-04T03:09:29;99196.88;;;7.50;100.00
20156;BME280;10238;49.556;10.956;2024-02-04T03:12:17;99192.44;;;7.51;100.00
20156;BME280;10238;49.556;10.956;2024-02-04T03:15:06;99193.41;;;7.50;100.00
20156;BME280;10238;49.556;10.956;2024-02-04T03:17:55;99185.56;;;7.48;100.00
20156;BME280;10238;49.556;10.956;2024-02-04T03:20:43;99190.75;;;7.50;100.00
20156;BME280;10238;49.556;10.956;2024-02-04T03:23:30;99201.34;;;7.50;100.00
20156;BME280;10238;49.556;10.956;2024-02-04T03:26:18;99200.47;;;7.49;100.00
20156;BME280;10238;49.556;10.956;2024-02-04T03:29:06;99193.41;;;7.50;100.00
20156;BME280;10238;49.556;10.956;2024-02-04T03:31:55;99196.97;;;7.49;100.00
20156;BME280;10238;49.556;10.956;2024-02-04T03:34:44;99209.28;;;7.50;100.00
20156;BME280;10238;49.556;10.956;2024-02-04T03:37:32;99200.59;;;7.48;100.00
20156;BME280;10238;49.556;10.956;2024-02-04T03:40:20;99194.56;;;7.46;100.00
20156;BME280;10238;49.556;10.956;2024-02-04T03:43:12;99203.47;;;7.45;100.00
20156;BME280;10238;49.556;10.956;2024-02-04T03:46:00;99204.44;;;7.44;100.00
20156;BME280;10238;49.556;10.956;2024-02-04T03:48:48;99202.97;;;7.40;100.00
20156;BME280;10238;49.556;10.956;2024-02-04T03:51:37;99199.47;;;7.39;100.00
20156;BME280;10238;49.556;10.956;2024-02-04T03:54:25;99212.94;;;7.36;100.00
20156;BME280;10238;49.556;10.956;2024-02-04T03:57:13;99204.25;;;7.34;100.00
20156;BME280;10238;49.556;10.956;2024-02-04T04:00:00;99210.63;;;7.32;100.00
20156;BME280;10238;49.556;10.956;2024-02-04T04:02:48;99200.06;;;7.32;100.00
20156;BME280;10238;49.556;10.956;2024-02-04T04:05:35;99206.41;;;7.29;100.00
20156;BME280;10238;49.556;10.956;2024-02-04T04:08:25;99199.41;;;7.28;100.00
20156;BME280;10238;49.556;10.956;2024-02-04T04:11:12;99198.59;;;7.28;100.00
20156;BME280;10238;49.556;10.956;2024-02-04T04:14:00;99199.41;;;7.28;100.00
20156;BME280;10238;49.556;10.956;2024-02-04T04:16:48;99195.22;;;7.26;100.00
20156;BME280;10238;49.556;10.956;2024-02-04T04:19:35;99205.78;;;7.26;100.00
20156;BME280;10238;49.556;10.956;2024-02-04T04:22:23;99204.13;;;7.25;100.00
20156;BME280;10238;49.556;10.956;2024-02-04T04:25:13;99208.53;;;7.24;100.00
20156;BME280;10238;49.556;10.956;2024-02-04T04:28:01;99197.16;;;7.24;100.00
20156;BME280;10238;49.556;10.956;2024-02-04T04:30:49;99195.31;;;7.24;100.00
20156;BME280;10238;49.556;10.956;2024-02-04T04:33:40;99202.44;;;7.24;100.00
20156;BME280;10238;49.556;10.956;2024-02-04T04:36:28;99191.13;;;7.22;100.00
20156;BME280;10238;49.556;10.956;2024-02-04T04:39:15;99183.94;;;7.24;100.00
20156;BME280;10238;49.556;10.956;2024-02-04T04:42:05;99177.03;;;7.21;100.00
20156;BME280;10238;49.556;10.956;2024-02-04T04:44:52;99182.22;;;7.23;100.00
20156;BME280;10238;49.556;10.956;2024-02-04T04:47:40;99169.84;;;7.23;100.00
20156;BME280;10238;49.556;10.956;2024-02-04T04:50:28;99170.69;;;7.24;100.00
20156;BME280;10238;49.556;10.956;2024-02-04T04:53:15;99179.34;;;7.26;100.00
20156;BME280;10238;49.556;10.956;2024-02-04T04:56:04;99174.06;;;7.26;100.00
20156;BME280;10238;49.556;10.956;2024-02-04T04:58:53;99182.72;;;7.28;100.00
20156;BME280;10238;49.556;10.956;2024-02-04T05:01:45;99178.25;;;7.28;100.00
20156;BME280;10238;49.556;10.956;2024-02-04T05:04:34;99169.63;;;7.26;100.00
20156;BME280;10238;49.556;10.956;2024-02-04T05:07:21;99174.06;;;7.26;100.00
20156;BME280;10238;49.556;10.956;2024-02-04T05:10:12;99182.97;;;7.25;100.00
20156;BME280;10238;49.556;10.956;2024-02-04T05:13:00;99175.13;;;7.23;100.00
20156;BME280;10238;49.556;10.956;2024-02-04T05:15:49;99167.31;;;7.22;100.00
20156;BME280;10238;49.556;10.956;2024-02-04T05:18:37;99172.84;;;7.19;100.00
20156;BME280;10238;49.556;10.956;2024-02-04T05:21:25;99173.69;;;7.19;100.00
20156;BME280;10238;49.556;10.956;2024-02-04T05:24:13;99160.59;;;7.18;100.00
20156;BME280;10238;49.556;10.956;2024-02-04T05:27:00;99155.28;;;7.18;100.00
20156;BME280;10238;49.556;10.956;2024-02-04T05:29:48;99159.63;;;7.19;100.00
20156;BME280;10238;49.556;10.956;2024-02-04T05:32:37;99160.59;;;7.18;100.00
20156;BME280;10238;49.556;10.956;2024-02-04T05:35:24;99165.88;;;7.18;100.00
20156;BME280;10238;49.556;10.956;2024-02-04T05:38:12;99153.59;;;7.17;100.00
20156;BME280;10238;49.556;10.956;2024-02-04T05:40:59;99162.47;;;7.16;100.00
20156;BME280;10238;49.556;10.956;2024-02-04T05:43:47;99163.44;;;7.15;100.00
20156;BME280;10238;49.556;10.956;2024-02-04T05:46:35;99160.81;;;7.15;100.00
20156;BME280;10238;49.556;10.956;2024-02-04T05:49:24;99162.72;;;7.13;100.00
20156;BME280;10238;49.556;10.956;2024-02-04T05:52:12;99168.22;;;7.10;100.00
20156;BME280;10238;49.556;10.956;2024-02-04T05:55:01;99166.53;;;7.09;100.00
20156;BME280;10238;49.556;10.956;2024-02-04T05:57:51;99164.00;;;7.07;100.00
20156;BME280;10238;49.556;10.956;2024-02-04T06:00:39;99163.16;;;7.07;100.00
20156;BME280;10238;49.556;10.956;2024-02-04T06:03:26;99158.09;;;7.04;100.00
20156;BME280;10238;49.556;10.956;2024-02-04T06:06:18;99147.75;;;7.01;100.00
20156;BME280;10238;49.556;10.956;2024-02-04T06:09:07;99145.31;;;6.98;100.00
20156;BME280;10238;49.556;10.956;2024-02-04T06:11:55;99149.91;;;6.96;100.00
20156;BME280;10238;49.556;10.956;2024-02-04T06:14:42;99142.09;;;6.94;100.00
20156;BME280;10238;49.556;10.956;2024-02-04T06:17:31;99144.50;;;6.97;100.00
20156;BME280;10238;49.556;10.956;2024-02-04T06:20:18;99150.72;;;6.96;100.00
20156;BME280;10238;49.556;10.956;2024-02-04T06:23:07;99146.28;;;6.97;100.00
20156;BME280;10238;49.556;10.956;2024-02-04T06:25:55;99156.97;;;6.95;100.00
20156;BME280;10238;49.556;10.956;2024-02-04T06:28:42;99156.66;;;7.00;100.00
20156;BME280;10238;49.556;10.956;2024-02-04T06:31:32;99145.84;;;7.03;100.00
20156;BME280;10238;49.556;10.956;2024-02-04T06:34:20;99145.84;;;7.03;100.00
20156;BME280;10238;49.556;10.956;2024-02-04T06:37:08;99148.50;;;7.03;100.00
20156;BME280;10238;49.556;10.956;2024-02-04T06:39:57;99156.41;;;7.03;100.00
20156;BME280;10238;49.556;10.956;2024-02-04T06:42:44;99152.81;;;7.04;100.00
20156;BME280;10238;49.556;10.956;2024-02-04T06:45:32;99167.63;;;7.06;100.00
20156;BME280;10238;49.556;10.956;2024-02-04T06:48:19;99174.59;;;7.07;100.00
20156;BME280;10238;49.556;10.956;2024-02-04T06:51:07;99175.44;;;7.08;100.00
20156;BME280;10238;49.556;10.956;2024-02-04T06:53:55;99173.50;;;7.10;100.00
20156;BME280;10238;49.556;10.956;2024-02-04T06:56:44;99171.72;;;7.10;100.00
20156;BME280;10238;49.556;10.956;2024-02-04T06:59:32;99161.97;;;7.11;100.00
20156;BME280;10238;49.556;10.956;2024-02-04T07:02:20;99164.59;;;7.11;100.00
20156;BME280;10238;49.556;10.956;2024-02-04T07:05:08;99161.97;;;7.11;100.00
20156;BME280;10238;49.556;10.956;2024-02-04T07:07:57;99171.59;;;7.12;100.00
20156;BME280;10238;49.556;10.956;2024-02-04T07:10:44;99176.78;;;7.13;100.00
20156;BME280;10238;49.556;10.956;2024-02-04T07:13:33;99167.53;;;7.19;100.00
20156;BME280;10238;49.556;10.956;2024-02-04T07:16:21;99172.59;;;7.22;100.00
20156;BME280;10238;49.556;10.956;2024-02-04T07:19:10;99172.38;;;7.25;100.00
20156;BME280;10238;49.556;10.956;2024-02-04T07:21:58;99161.81;;;7.25;100.00
20156;BME280;10238;49.556;10.956;2024-02-04T07:24:45;99156.50;;;7.25;100.00
20156;BME280;10238;49.556;10.956;2024-02-04T07:27:33;99151.00;;;7.28;100.00
20156;BME280;10238;49.556;10.956;2024-02-04T07:30:22;99152.78;;;7.27;100.00
20156;BME280;10238;49.556;10.956;2024-02-04T07:33:09;99157.97;;;7.29;100.00
20156;BME280;10238;49.556;10.956;2024-02-04T07:35:57;99153.41;;;7.31;100.00
20156;BME280;10238;49.556;10.956;2024-02-04T07:38:44;99158.59;;;7.32;100.00
20156;BME280;10238;49.556;10.956;2024-02-04T07:41:32;99148.84;;;7.33;100.00
20156;BME280;10238;49.556;10.956;2024-02-04T07:44:20;99143.31;;;7.36;100.00
20156;BME280;10238;49.556;10.956;2024-02-04T07:47:13;99145.84;;;7.37;100.00
20156;BME280;10238;49.556;10.956;2024-02-04T07:50:01;99142.25;;;7.38;100.00
20156;BME280;10238;49.556;10.956;2024-02-04T07:52:49;99137.69;;;7.40;100.00
20156;BME280;10238;49.556;10.956;2024-02-04T07:55:37;99142.63;;;7.45;100.00
20156;BME280;10238;49.556;10.956;2024-02-04T07:58:24;99144.31;;;7.46;100.00
20156;BME280;10238;49.556;10.956;2024-02-04T08:01:13;99143.25;;;7.48;100.00
20156;BME280;10238;49.556;10.956;2024-02-04T08:04:02;99135.19;;;7.50;100.00
20156;BME280;10238;49.556;10.956;2024-02-04T08:06:52;99133.25;;;7.52;100.00
20156;BME280;10238;49.556;10.956;2024-02-04T08:09:39;99139.19;;;7.55;100.00
20156;BME280;10238;49.556;10.956;2024-02-04T08:12:28;99156.50;;;7.59;100.00
20156;BME280;10238;49.556;10.956;2024-02-04T08:15:16;99156.25;;;7.62;100.00
20156;BME280;10238;49.556;10.956;2024-02-04T08:18:04;99139.31;;;7.65;100.00
20156;BME280;10238;49.556;10.956;2024-02-04T08:20:55;99151.59;;;7.66;100.00
20156;BME280;10238;49.556;10.956;2024-02-04T08:23:43;99150.63;;;7.67;100.00
20156;BME280;10238;49.556;10.956;2024-02-04T08:26:33;99156.66;;;7.69;100.00
20156;BME280;10238;49.556;10.956;2024-02-04T08:29:21;99153.03;;;7.70;100.00
20156;BME280;10238;49.556;10.956;2024-02-04T08:32:08;99150.28;;;7.71;100.00
20156;BME280;10238;49.556;10.956;2024-02-04T08:34:55;99144.75;;;7.74;100.00
20156;BME280;10238;49.556;10.956;2024-02-04T08:37:45;99148.94;;;7.77;100.00
20156;BME280;10238;49.556;10.956;2024-02-04T08:40:33;99139.81;;;7.81;100.00
20156;BME280;10238;49.556;10.956;2024-02-04T08:43:20;99144.97;;;7.82;100.00
20156;BME280;10238;49.556;10.956;2024-02-04T08:46:08;99135.97;;;7.85;100.00
20156;BME280;10238;49.556;10.956;2024-02-04T08:48:59;99137.66;;;7.86;100.00
20156;BME280;10238;49.556;10.956;2024-02-04T08:51:47;99138.88;;;7.93;100.00
20156;BME280;10238;49.556;10.956;2024-02-04T08:54:36;99144.78;;;7.96;100.00
20156;BME280;10238;49.556;10.956;2024-02-04T08:57:24;99154.28;;;7.99;100.00
20156;BME280;10238;49.556;10.956;2024-02-04T09:00:13;99158.59;;;8.00;100.00
20156;BME280;10238;49.556;10.956;2024-02-04T09:03:00;99158.47;;;8.01;100.00
20156;BME280;10238;49.556;10.956;2024-02-04T09:05:48;99155.47;;;8.06;100.00
20156;BME280;10238;49.556;10.956;2024-02-04T09:08:35;99149.94;;;8.09;100.00
20156;BME280;10238;49.556;10.956;2024-02-04T09:11:24;99133.00;;;8.11;100.00
20156;BME280;10238;49.556;10.956;2024-02-04T09:14:12;99139.72;;;8.15;100.00
20156;BME280;10238;49.556;10.956;2024-02-04T09:17:02;99134.81;;;8.22;100.00
20156;BME280;10238;49.556;10.956;2024-02-04T09:19:51;99124.84;;;8.25;100.00
20156;BME280;10238;49.556;10.956;2024-02-04T09:22:39;99126.16;;;8.31;100.00
20156;BME280;10238;49.556;10.956;2024-02-04T09:25:27;99127.69;;;8.33;100.00
20156;BME280;10238;49.556;10.956;2024-02-04T09:28:16;99114.09;;;8.38;100.00
20156;BME280;10238;49.556;10.956;2024-02-04T09:31:07;99116.38;;;8.42;100.00
20156;BME280;10238;49.556;10.956;2024-02-04T09:33:55;99099.28;;;8.46;100.00
20156;BME280;10238;49.556;10.956;2024-02-04T09:36:43;99109.50;;;8.51;100.00
20156;BME280;10238;49.556;10.956;2024-02-04T09:39:31;99105.66;;;8.55;100.00
20156;BME280;10238;49.556;10.956;2024-02-04T09:42:20;99105.41;;;8.58;100.00
20156;BME280;10238;49.556;10.956;2024-02-04T09:45:14;99105.84;;;8.63;100.00
20156;BME280;10238;49.556;10.956;2024-02-04T09:48:04;99113.31;;;8.69;100.00
20156;BME280;10238;49.556;10.956;2024-02-04T09:50:52;99117.13;;;8.76;100.00
20156;BME280;10238;49.556;10.956;2024-02-04T09:53:44;99123.66;;;8.83;100.00
20156;BME280;10238;49.556;10.956;2024-02-04T09:56:35;99117.13;;;8.87;100.00
20156;BME280;10238;49.556;10.956;2024-02-04T09:59:22;99112.28;;;8.92;100.00
20156;BME280;10238;49.556;10.956;2024-02-04T10:02:12;99103.69;;;9.00;100.00
20156;BME280;10238;49.556;10.956;2024-02-04T10:05:05;99110.75;;;9.10;100.00
20156;BME280;10238;49.556;10.956;2024-02-04T10:07:55;99102.91;;;9.20;100.00
20156;BME280;10238;49.556;10.956;2024-02-04T10:10:44;99111.16;;;9.26;100.00
20156;BME280;10238;49.556;10.956;2024-02-04T10:13:43;99094.75;;;9.32;100.00
20156;BME280;10238;49.556;10.956;2024-02-04T10:16:31;99092.41;;;9.39;100.00
20156;BME280;10238;49.556;10.956;2024-02-04T10:19:24;99087.44;;;9.45;100.00
20156;BME280;10238;49.556;10.956;2024-02-04T10:22:11;99077.41;;;9.49;100.00
20156;BME280;10238;49.556;10.956;2024-02-04T10:25:06;99076.59;;;9.58;100.00
20156;BME280;10238;49.556;10.956;2024-02-04T10:27:55;99081.25;;;9.65;100.00
20156;BME280;10238;49.556;10.956;2024-02-04T10:30:44;99063.69;;;9.74;100.00
20156;BME280;10238;49.556;10.956;2024-02-04T10:33:32;99067.91;;;9.76;100.00
20156;BME280;10238;49.556;10.956;2024-02-04T10:36:21;99061.38;;;9.80;100.00
20156;BME280;10238;49.556;10.956;2024-02-04T10:39:08;99056.25;;;9.88;100.00
20156;BME280;10238;49.556;10.956;2024-02-04T10:42:02;99051.63;;;9.90;100.00
20156;BME280;10238;49.556;10.956;2024-02-04T10:44:53;99051.34;;;9.93;100.00
20156;BME280;10238;49.556;10.956;2024-02-04T10:47:48;99051.09;;;9.96;100.00
20156;BME280;10238;49.556;10.956;2024-02-04T10:50:41;99047.72;;;9.94;100.00
20156;BME280;10238;49.556;10.956;2024-02-04T10:53:34;99054.00;;;9.93;100.00
20156;BME280;10238;49.556;10.956;2024-02-04T10:56:30;99058.47;;;9.93;100.00
20156;BME280;10238;49.556;10.956;2024-02-04T10:59:18;99044.38;;;9.92;100.00
20156;BME280;10238;49.556;10.956;2024-02-04T11:02:09;99055.00;;;9.92;100.00
20156;BME280;10238;49.556;10.956;2024-02-04T11:04:58;99039.88;;;9.93;100.00
20156;BME280;10238;49.556;10.956;2024-02-04T11:07:49;99033.03;;;9.90;100.00
20156;BME280;10238;49.556;10.956;2024-02-04T11:10:39;99033.03;;;9.90;100.00
20156;BME280;10238;49.556;10.956;2024-02-04T11:13:29;99032.63;;;9.85;100.00
20156;BME280;10238;49.556;10.956;2024-02-04T11:16:39;99040.84;;;9.82;100.00
20156;BME280;10238;49.556;10.956;2024-02-04T11:19:46;99031.19;;;9.81;100.00
20156;BME280;10238;49.556;10.956;2024-02-04T11:23:02;99028.09;;;9.76;100.00
20156;BME280;10238;49.556;10.956;2024-02-04T11:25:56;99033.41;;;9.76;100.00
20156;BME280;10238;49.556;10.956;2024-02-04T11:28:45;99021.38;;;9.72;100.00
20156;BME280;10238;49.556;10.956;2024-02-04T11:31:34;99011.28;;;9.66;100.00
20156;BME280;10238;49.556;10.956;2024-02-04T11:34:23;99008.91;;;9.63;100.00
20156;BME280;10238;49.556;10.956;2024-02-04T11:37:19;98994.91;;;9.61;100.00
20156;BME280;10238;49.556;10.956;2024-02-04T11:40:14;98990.59;;;9.60;100.00
20156;BME280;10238;49.556;10.956;2024-02-04T11:43:12;98991.66;;;9.58;100.00
20156;BME280;10238;49.556;10.956;2024-02-04T11:46:02;98992.50;;;9.58;100.00
20156;BME280;10238;49.556;10.956;2024-02-04T11:48:54;98989.59;;;9.61;100.00
20156;BME280;10238;49.556;10.956;2024-02-04T11:51:46;98985.97;;;9.62;100.00
20156;BME280;10238;49.556;10.956;2024-02-04T11:54:34;98999.22;;;9.62;100.00
20156;BME280;10238;49.556;10.956;2024-02-04T11:57:23;98999.22;;;9.62;100.00
20156;BME280;10238;49.556;10.956;2024-02-04T12:00:15;98999.69;;;9.67;100.00
20156;BME280;10238;49.556;10.956;2024-02-04T12:03:04;98983.91;;;9.66;100.00
20156;BME280;10238;49.556;10.956;2024-02-04T12:05:53;98998.00;;;9.66;100.00
20156;BME280;10238;49.556;10.956;2024-02-04T12:08:41;98984.16;;;9.63;100.00
20156;BME280;10238;49.556;10.956;2024-02-04T12:11:29;98984.16;;;9.63;100.00
20156;BME280;10238;49.556;10.956;2024-02-04T12:14:18;98991.00;;;9.65;100.00
20156;BME280;10238;49.556;10.956;2024-02-04T12:17:10;98970.03;;;9.62;100.00
20156;BME280;10238;49.556;10.956;2024-02-04T12:19:58;98958.00;;;9.58;100.00
20156;BME280;10238;49.556;10.956;2024-02-04T12:22:46;98966.09;;;9.57;100.00
20156;BME280;10238;49.556;10.956;2024-02-04T12:25:35;98962.34;;;9.59;100.00
20156;BME280;10238;49.556;10.956;2024-02-04T12:28:28;98965.97;;;9.58;100.00
20156;BME280;10238;49.556;10.956;2024-02-04T12:31:17;98969.63;;;9.57;100.00
20156;BME280;10238;49.556;10.956;2024-02-04T12:34:08;98979.38;;;9.57;100.00
20156;BME280;10238;49.556;10.956;2024-02-04T12:37:02;98974.19;;;9.55;100.00
20156;BME280;10238;49.556;10.956;2024-02-04T12:39:49;98965.97;;;9.58;100.00
20156;BME280;10238;49.556;10.956;2024-02-04T12:42:37;98977.97;;;9.53;100.00
20156;BME280;10238;49.556;10.956;2024-02-04T12:45:26;98975.19;;;9.54;100.00
20156;BME280;10238;49.556;10.956;2024-02-04T12:48:15;98973.38;;;9.55;100.00
20156;BME280;10238;49.556;10.956;2024-02-04T12:51:06;98971.69;;;9.54;100.00
20156;BME280;10238;49.556;10.956;2024-02-04T12:54:06;98987.72;;;9.52;100.00
20156;BME280;10238;49.556;10.956;2024-02-04T12:56:54;98976.03;;;9.55;100.00
20156;BME280;10238;49.556;10.956;2024-02-04T12:59:44;98956.88;;;9.51;100.00
20156;BME280;10238;49.556;10.956;2024-02-04T13:02:32;98962.06;;;9.53;100.00
20156;BME280;10238;49.556;10.956;2024-02-04T13:05:24;98948.91;;;9.51;100.00
20156;BME280;10238;49.556;10.956;2024-02-04T13:08:18;98953.38;;;9.51;100.00
20156;BME280;10238;49.556;10.956;2024-02-04T13:11:06;98956.41;;;9.46;100.00
20156;BME280;10238;49.556;10.956;2024-02-04T13:13:53;98955.47;;;9.47;100.00
20156;BME280;10238;49.556;10.956;2024-02-04T13:16:41;98946.41;;;9.50;100.00
20156;BME280;10238;49.556;10.956;2024-02-04T13:19:33;98947.09;;;9.52;100.00
20156;BME280;10238;49.556;10.956;2024-02-04T13:22:22;98941.38;;;9.56;100.00
20156;BME280;10238;49.556;10.956;2024-02-04T13:25:11;98934.56;;;9.63;100.00
20156;BME280;10238;49.556;10.956;2024-02-04T13:28:00;98926.06;;;9.69;100.00
20156;BME280;10238;49.556;10.956;2024-02-04T13:30:48;98922.16;;;9.73;100.00
20156;BME280;10238;49.556;10.956;2024-02-04T13:33:38;98930.81;;;9.75;100.00
20156;BME280;10238;49.556;10.956;2024-02-04T13:36:26;98937.13;;;9.74;100.00
20156;BME280;10238;49.556;10.956;2024-02-04T13:39:14;98924.69;;;9.75;100.00
20156;BME280;10238;49.556;10.956;2024-02-04T13:42:06;98927.34;;;9.75;100.00
20156;BME280;10238;49.556;10.956;2024-02-04T13:44:53;98933.47;;;9.75;100.00
20156;BME280;10238;49.556;10.956;2024-02-04T13:47:41;98934.59;;;9.73;100.00
20156;BME280;10238;49.556;10.956;2024-02-04T13:50:29;98933.06;;;9.70;100.00
20156;BME280;10238;49.556;10.956;2024-02-04T13:53:17;98918.78;;;9.71;100.00
20156;BME280;10238;49.556;10.956;2024-02-04T13:56:05;98938.63;;;9.67;100.00
20156;BME280;10238;49.556;10.956;2024-02-04T13:58:54;98940.56;;;9.65;100.00
20156;BME280;10238;49.556;10.956;2024-02-04T14:01:42;98946.28;;;9.61;100.00
20156;BME280;10238;49.556;10.956;2024-02-04T14:04:31;98952.84;;;9.57;100.00
20156;BME280;10238;49.556;10.956;2024-02-04T14:07:19;98944.03;;;9.56;100.00
20156;BME280;10238;49.556;10.956;2024-02-04T14:10:08;98944.19;;;9.55;100.00
20156;BME280;10238;49.556;10.956;2024-02-04T14:12:59;98954.94;;;9.53;100.00
20156;BME280;10238;49.556;10.956;2024-02-04T14:15:54;98947.50;;;9.47;100.00
20156;BME280;10238;49.556;10.956;2024-02-04T14:18:42;98949.44;;;9.45;100.00
20156;BME280;10238;49.556;10.956;2024-02-04T14:21:36;98974.31;;;9.44;100.00
20156;BME280;10238;49.556;10.956;2024-02-04T14:24:23;98974.31;;;9.44;100.00
20156;BME280;10238;49.556;10.956;2024-02-04T14:27:12;98975.38;;;9.42;100.00
20156;BME280;10238;49.556;10.956;2024-02-04T14:30:00;98968.69;;;9.38;100.00
20156;BME280;10238;49.556;10.956;2024-02-04T14:32:49;98969.78;;;9.35;100.00
20156;BME280;10238;49.556;10.956;2024-02-04T14:35:37;98995.47;;;9.35;100.00
20156;BME280;10238;49.556;10.956;2024-02-04T14:38:25;98995.16;;;9.28;100.00
20156;BME280;10238;49.556;10.956;2024-02-04T14:41:13;98973.69;;;9.31;100.00
20156;BME280;10238;49.556;10.956;2024-02-04T14:44:01;98972.63;;;9.23;100.00